createdAt,value
2022-09-04T00:03:05.470Z,14.40
2022-09-04T00:08:02.024Z,14.50
2022-09-04T00:12:50.350Z,14.50
2022-09-04T00:17:40.029Z,14.50
2022-09-04T00:22:32.674Z,14.40
2022-09-04T00:27:22.795Z,14.30
2022-09-04T00:32:13.110Z,14.40
2022-09-04T00:37:04.778Z,14.30
2022-09-04T00:42:03.994Z,14.20
2022-09-04T00:47:00.555Z,14.00
2022-09-04T00:51:53.981Z,13.90
2022-09-04T00:57:05.468Z,13.80
2022-09-04T01:01:51.975Z,13.80
2022-09-04T01:06:43.308Z,13.70
2022-09-04T01:11:37.579Z,13.70
2022-09-04T01:16:27.873Z,13.80
2022-09-04T01:21:50.010Z,14.00
2022-09-04T01:26:44.818Z,13.80
2022-09-04T01:31:37.661Z,13.60
2022-09-04T01:36:29.299Z,13.60
2022-09-04T01:41:19.779Z,13.50
2022-09-04T01:46:25.206Z,13.60
2022-09-04T01:51:20.269Z,13.50
2022-09-04T01:56:11.418Z,13.30
2022-09-04T02:01:05.024Z,13.40
2022-09-04T02:06:02.962Z,13.20
2022-09-04T02:10:56.676Z,13.10
2022-09-04T02:15:48.403Z,13.10
2022-09-04T02:20:33.049Z,13.20
2022-09-04T02:25:27.393Z,12.90
2022-09-04T02:30:13.815Z,12.90
2022-09-04T02:35:04.321Z,12.80
2022-09-04T02:40:01.102Z,12.80
2022-09-04T02:44:56.765Z,12.70
2022-09-04T02:49:52.425Z,12.80
2022-09-04T02:54:48.711Z,12.60
2022-09-04T02:59:42.865Z,12.80
2022-09-04T03:04:34.807Z,12.80
2022-09-04T03:09:24.948Z,12.70
2022-09-04T03:14:13.710Z,12.70
2022-09-04T03:19:08.600Z,12.70
2022-09-04T03:23:57.369Z,12.70
2022-09-04T03:28:53.227Z,12.70
2022-09-04T03:33:45.781Z,12.60
2022-09-04T03:38:35.259Z,12.80
2022-09-04T03:43:41.109Z,12.90
2022-09-04T03:48:47.185Z,12.90
2022-09-04T03:53:41.215Z,12.90
2022-09-04T03:58:38.446Z,12.90
2022-09-04T04:03:47.667Z,12.90
2022-09-04T04:08:43.312Z,13.00
2022-09-04T04:13:48.827Z,13.10
2022-09-04T04:18:55.287Z,13.10
2022-09-04T04:24:05.484Z,13.20
2022-09-04T04:29:14.195Z,13.30
2022-09-04T04:34:06.733Z,13.30
2022-09-04T04:39:12.019Z,13.40
2022-09-04T04:44:12.302Z,13.40
2022-09-04T04:49:19.278Z,13.50
2022-09-04T04:54:18.659Z,13.50
2022-09-04T04:59:20.785Z,13.50
2022-09-04T05:04:15.370Z,13.50
2022-09-04T05:09:08.287Z,13.50
2022-09-04T05:14:05.181Z,13.50
2022-09-04T05:18:58.256Z,13.50
2022-09-04T05:23:51.812Z,13.50
2022-09-04T05:28:50.059Z,13.60
2022-09-04T05:33:40.824Z,13.60
2022-09-04T05:38:32.160Z,13.70
2022-09-04T05:43:28.184Z,13.80
2022-09-04T05:48:20.096Z,14.00
2022-09-04T05:53:40.329Z,14.20
2022-09-04T05:58:50.455Z,14.30
2022-09-04T06:04:03.611Z,14.50
2022-09-04T06:09:08.146Z,14.60
2022-09-04T06:14:07.348Z,14.80
2022-09-04T06:19:10.647Z,15.30
2022-09-04T06:24:18.757Z,15.40
2022-09-04T06:29:28.977Z,15.80
2022-09-04T06:34:22.095Z,15.90
2022-09-04T06:39:24.108Z,15.80
2022-09-04T06:44:16.642Z,16.00
2022-09-04T06:49:09.896Z,16.10
2022-09-04T06:53:59.043Z,16.20
2022-09-04T06:59:06.243Z,16.90
2022-09-04T07:04:06.234Z,17.30
2022-09-04T07:09:02.296Z,17.40
2022-09-04T07:14:21.061Z,17.50
2022-09-04T07:19:37.956Z,17.90
2022-09-04T07:24:46.346Z,18.40
2022-09-04T07:29:37.564Z,18.70
2022-09-04T07:34:28.357Z,18.10
2022-09-04T07:39:22.164Z,18.40
2022-09-04T07:44:15.602Z,19.00
2022-09-04T07:49:10.328Z,19.40
2022-09-04T07:54:24.397Z,20.00
2022-09-04T07:59:43.643Z,20.80
2022-09-04T08:04:44.229Z,20.90
2022-09-04T08:09:49.465Z,20.70
2022-09-04T08:15:05.416Z,20.40
2022-09-04T08:19:58.467Z,21.00
2022-09-04T08:25:21.551Z,21.00
2022-09-04T08:30:08.760Z,21.10
2022-09-04T08:35:07.494Z,21.60
2022-09-04T08:40:04.964Z,22.70
2022-09-04T08:45:27.114Z,22.80
2022-09-04T08:50:29.992Z,22.80
2022-09-04T08:55:34.915Z,23.40
2022-09-04T09:00:20.893Z,24.80
2022-09-04T09:05:44.681Z,25.70
2022-09-04T09:10:50.082Z,26.10
2022-09-04T09:16:16.588Z,26.30
2022-09-04T09:21:09.297Z,26.50
2022-09-04T09:26:06.423Z,27.30
2022-09-04T09:31:18.496Z,27.20
2022-09-04T09:36:17.436Z,26.70
2022-09-04T09:41:48.983Z,25.00
2022-09-04T09:47:23.424Z,24.50
2022-09-04T09:52:42.362Z,24.90
2022-09-04T09:58:05.505Z,25.00
2022-09-04T10:03:30.717Z,24.80
2022-09-04T10:08:36.062Z,24.60
2022-09-04T10:13:53.817Z,24.60
2022-09-04T10:19:06.217Z,26.20
2022-09-04T10:24:20.418Z,27.00
2022-09-04T10:29:48.561Z,28.10
2022-09-04T10:34:55.610Z,29.40
2022-09-04T10:40:10.483Z,30.20
2022-09-04T10:45:26.129Z,30.80
2022-09-04T10:50:31.154Z,31.10
2022-09-04T10:55:32.937Z,30.90
2022-09-04T11:00:19.801Z,31.50
2022-09-04T11:05:36.677Z,31.20
2022-09-04T11:10:35.042Z,31.30
2022-09-04T11:15:42.385Z,31.80
2022-09-04T11:20:56.416Z,31.50
2022-09-04T11:26:08.672Z,31.40
2022-09-04T11:31:21.104Z,31.40
2022-09-04T11:36:51.293Z,31.90
2022-09-04T11:42:10.092Z,32.30
2022-09-04T11:47:32.256Z,32.50
2022-09-04T11:52:28.919Z,32.80
2022-09-04T11:57:28.048Z,33.00
2022-09-04T12:02:49.752Z,33.10
2022-09-04T12:07:49.815Z,33.80
2022-09-04T12:13:00.620Z,33.80
2022-09-04T12:18:54.684Z,34.40
2022-09-04T12:24:09.048Z,34.60
2022-09-04T12:29:39.001Z,34.90
2022-09-04T12:34:45.369Z,34.10
2022-09-04T12:39:57.312Z,34.30
2022-09-04T12:44:53.894Z,34.80
2022-09-04T12:50:11.486Z,34.10
2022-09-04T12:55:07.825Z,34.70
2022-09-04T13:00:05.874Z,34.30
2022-09-04T13:04:59.335Z,35.30
2022-09-04T13:09:53.613Z,35.20
2022-09-04T13:15:03.181Z,35.50
2022-09-04T13:20:00.790Z,35.70
2022-09-04T13:24:54.832Z,36.50
2022-09-04T13:29:50.793Z,35.30
2022-09-04T13:34:48.644Z,36.10
2022-09-04T13:40:04.563Z,36.80
2022-09-04T13:45:00.690Z,37.00
2022-09-04T13:49:55.295Z,37.90
2022-09-04T13:54:44.384Z,37.30
2022-09-04T13:59:28.913Z,36.90
2022-09-04T14:04:16.933Z,37.10
2022-09-04T14:09:05.436Z,36.50
2022-09-04T14:14:31.225Z,37.30
2022-09-04T14:19:31.412Z,37.90
2022-09-04T14:24:25.657Z,37.80
2022-09-04T14:29:22.421Z,37.50
2022-09-04T14:34:14.221Z,37.90
2022-09-04T14:39:13.802Z,37.00
2022-09-04T14:44:10.296Z,36.80
2022-09-04T14:49:03.064Z,35.90
2022-09-04T14:53:56.170Z,36.10
2022-09-04T14:58:43.052Z,35.20
2022-09-04T15:03:34.945Z,34.70
2022-09-04T15:08:28.950Z,34.50
2022-09-04T15:13:39.129Z,34.20
2022-09-04T15:18:28.444Z,34.40
2022-09-04T15:23:24.712Z,33.70
2022-09-04T15:28:17.365Z,33.30
2022-09-04T15:33:07.405Z,32.60
2022-09-04T15:37:53.071Z,32.60
2022-09-04T15:42:45.153Z,31.90
2022-09-04T15:47:51.422Z,31.90
2022-09-04T15:52:41.711Z,31.70
2022-09-04T15:57:36.485Z,31.50
2022-09-04T16:02:36.688Z,30.80
2022-09-04T16:07:36.958Z,30.80
2022-09-04T16:12:25.473Z,31.00
2022-09-04T16:17:14.176Z,30.20
2022-09-04T16:22:08.648Z,30.40
2022-09-04T16:26:55.131Z,30.30
2022-09-04T16:31:40.116Z,30.10
2022-09-04T16:36:28.603Z,30.00
2022-09-04T16:41:18.973Z,29.90
2022-09-04T16:46:13.990Z,29.50
2022-09-04T16:51:29.253Z,29.10
2022-09-04T16:56:26.463Z,28.60
2022-09-04T17:01:16.873Z,28.10
2022-09-04T17:06:06.366Z,27.50
2022-09-04T17:10:55.150Z,26.70
2022-09-04T17:15:53.457Z,26.10
2022-09-04T17:22:34.791Z,25.60
2022-09-04T17:29:00.063Z,25.30
2022-09-04T17:30:57.652Z,24.80
2022-09-04T17:40:33.703Z,24.40
2022-09-04T17:41:36.341Z,23.90
2022-09-04T17:46:24.814Z,23.50
2022-09-04T17:51:08.965Z,23.20
2022-09-04T17:55:58.761Z,22.80
2022-09-04T18:01:15.527Z,22.50
2022-09-04T18:06:06.119Z,22.30
2022-09-04T18:10:55.284Z,22.00
2022-09-04T18:15:49.452Z,21.70
2022-09-04T18:20:39.526Z,21.40
2022-09-04T18:25:29.738Z,21.20
2022-09-04T18:37:05.214Z,20.90
2022-09-04T18:37:25.319Z,20.50
2022-09-04T18:42:54.895Z,20.40
2022-09-04T18:50:33.211Z,20.30
2022-09-04T18:51:19.375Z,20.10
2022-09-04T18:56:20.968Z,20.10
2022-09-04T19:01:12.856Z,20.10
2022-09-04T19:06:01.691Z,20.00
2022-09-04T19:10:48.645Z,19.60
2022-09-04T19:15:50.649Z,19.50
2022-09-04T19:20:47.811Z,19.50
2022-09-04T19:25:35.709Z,19.40
2022-09-04T19:30:23.900Z,19.30
2022-09-04T19:35:19.770Z,19.30
2022-09-04T19:45:56.466Z,19.20
2022-09-04T19:46:11.720Z,19.00
2022-09-04T19:53:21.576Z,18.80
2022-09-04T19:55:46.850Z,18.70
2022-09-04T20:00:42.703Z,18.70
2022-09-04T20:05:31.301Z,18.60
2022-09-04T20:10:23.211Z,18.50
2022-09-04T20:15:14.332Z,18.40
2022-09-04T20:20:01.915Z,18.30
2022-09-04T20:24:58.447Z,18.20
2022-09-04T20:29:54.826Z,18.20
2022-09-04T20:34:46.092Z,18.10
2022-09-04T20:39:36.518Z,17.90
2022-09-04T20:44:28.707Z,17.70
2022-09-04T20:52:53.301Z,17.80
2022-09-04T20:54:51.175Z,17.60
2022-09-04T21:03:18.289Z,17.60
2022-09-04T21:05:01.869Z,17.50
2022-09-04T21:09:56.149Z,17.50
2022-09-04T21:14:45.648Z,17.40
2022-09-04T21:20:03.994Z,17.30
2022-09-04T21:25:18.690Z,17.40
2022-09-04T21:30:09.839Z,17.20
2022-09-04T21:35:07.539Z,17.00
2022-09-04T21:40:21.584Z,17.00
2022-09-04T21:45:39.639Z,17.00
2022-09-04T21:51:01.400Z,16.90
2022-09-04T22:02:25.139Z,16.90
2022-09-04T22:02:42.948Z,16.70
2022-09-04T22:10:41.622Z,16.70
2022-09-04T22:13:46.218Z,16.60
2022-09-04T22:17:30.961Z,16.60
2022-09-04T22:22:31.033Z,16.60
2022-09-04T22:28:07.808Z,16.60
2022-09-04T22:33:21.672Z,16.40
2022-09-04T22:38:44.766Z,16.40
2022-09-04T22:43:46.727Z,16.40
2022-09-04T22:49:13.042Z,16.20
2022-09-04T22:54:14.209Z,16.30
2022-09-04T22:59:27.590Z,16.20
2022-09-04T23:04:39.023Z,16.20
2022-09-04T23:13:44.439Z,16.10
2022-09-04T23:15:09.002Z,16.10
2022-09-04T23:24:10.101Z,16.10
2022-09-04T23:26:45.847Z,16.00
2022-09-04T23:31:10.507Z,16.00
2022-09-04T23:36:03.126Z,16.00
2022-09-04T23:40:48.220Z,16.10
2022-09-04T23:45:53.896Z,16.10
2022-09-04T23:50:56.613Z,16.20
2022-09-04T23:55:54.930Z,16.20
